TIST/STT METAR and TAF weather

Enter ICAO airport designator
Station Type Date Time Source
TIST METAR 2022/10/01 08:53 UTC NOAA

TIST 010853Z AUTO 13010KT 10SM FEW018 28/24 A2988 RMK AO2 SLP118 T02780244 53004


Station Type Date Time Source
TIST Decoded METAR 2022/10/01 08:53 UTC NOAA

Charlotte Amalie St. Thomas, Cyril E. King Airport, Virgin Islands (TIST) 18-20N 064-59W
Oct 01, 2022 - 04:53 AM EDT / 2022.10.01 0853 UTC
Wind: from the SE (130 degrees) at 12 MPH (10 KT):0
Visibility: 10 mile(s):0
Sky conditions: mostly clear
Temperature: 82.0 F (27.8 C)
Dew Point: 75.9 F (24.4 C)
Relative Humidity: 81%
Pressure (altimeter): 29.88 in. Hg (1011 hPa)
Pressure tendency: 0.01 inches (0.4 hPa) higher than three hours ago
ob: TIST 010853Z AUTO 13010KT 10SM FEW018 28/24 A2988 RMK AO2 SLP118 T02780244 53004
cycle: 9

Station Type Date Time Source
TIST TAF 2022/10/01 06:43 UTC NOAA

TAF TIST 010536Z 0106/0206 10009KT P6SM FEW016 FEW030
FM010740 12008KT P6SM VCSH SCT018 SCT030
FM011300 14010KT P6SM VCSH FEW030 SCT050 SCT070
FM012300 12006KT P6SM FEW030

Example: see airport list